Aérodrome :
LOGIN :

S'inscrire | Disclaimer

   EN    FR    IT 

 










Légende :    VFR   VFR Marginal   IFR   IFR Intensif   IFR Très Intensif
Visi : 
Plafond : 
>= 8 km
>= 3000ft
5 à 8 km
1000 à 3000 ft
1500m à 5 km
500 à 1000 ft
800 à 1500m
200 à 500 ft
< 800m
< 200 ft
Symboles :   Orages  Brouillard  Fortes neiges  Fortes précipitations  Vent > 20 kt
SIGMETs :   Divers  Orages  Givrage  Turbulence  Onde Orograph.  Cendres Volcan.






- Altitude de l'aérodrome : 616 ft
- Code IATA : PUF


LFBP - Pau

DERNIER METAR :
  • 170330Z AUTO 24009KT 9999 BKN074/// ///TCU 12/08 Q1018 TEMPO 4000 -SHRA

METARs EXPIRÉS :
  • 170300Z AUTO 22008KT 200V260 9999 FEW031 BKN076 11/08 Q1018 TEMPO 4000 -SHRA BKN030TCU
  • 170230Z AUTO 23008KT 9999 FEW048 BKN060 BKN072 12/08 Q1018 TEMPO 4000 -SHRA BKN030TCU
  • 170200Z AUTO 22008KT 9999 FEW039 OVC074 12/07 Q1018 TEMPO 4000 -SHRA BKN030TCU
  • 170130Z AUTO 23006KT 9999 SCT039 BKN045 BKN066 12/08 Q1017 TEMPO 4000 -SHRA BKN030TCU
  • 170100Z AUTO 23006KT 9999 BKN041 BKN048 BKN056 12/07 Q1017 TEMPO 4000 -SHRA BKN030TCU

TAF TAF LFBP
Valide du 17 à 00h jusqu'au 18 à 00h UTC


162300Z 1700/1724 24005KT 9999 SCT040 BKN070
PROB30
TEMPO 1702/1708 4000 -SHRA BKN030TCU
BECMG 1708/1710 28015KT
BECMG 1714/1716 CAVOK
BECMG 1719/1721 VRB03KT



MET'MAP, la Météo Aéronautique d'un coup d'oeil ! - Copyright ORBIFLY Décembre 2007 - Disclaimer

ORBIFLY MET'MAP TEAM :

Programmation & Développement : Alexandra Zaïnal
Sur une idée originale de : Baudouin d'Aumeries
Assistance à la programmation : Marc-Olivier Méhu
Soutien technique & logistique : Manuel Goepfert

Contact : metmap@orbifly.com




SOURCES & CREDITS :

   NOAA